Nearby METAR Reports

 

RPLL - Ninoy Aquino Int, Philippines
Distance from station: S 15km
Updated: 08/07/2020 7:00am
NOT Current
Clear
Clear
 Wind from varies
Wind: varies 2 km/h
Temperature: 28°C
Heat Index: 32°C
Dew Point: 24°C
Humidity: 79%
Barometer: 1008 hPa
Summary: Clear
Visibility: greater than 10 km
2020/08/06 23:00 RPLL 062300Z AUTO VRB01KT CAVOK 28/24 Q1008
RPLC - Angeles/Pampanga, Philippines
Distance from station: NW 71km
Updated: 07/14/2020 1:00pm
NOT Current
Mostly cloudy
Mostly cloudy
 Wind from S
Wind: S 7 km/h
Temperature: 33°C
Heat Index: 40°C
Dew Point: 25°C
Humidity: 63%
Barometer: 1008 hPa
Clouds: Mostly cloudy
Visibility: 8 km
Cloud details: Partly cloudy 610 m
Mostly cloudy 3048 m
2020/07/14 05:00 RPLC 140500Z 18004KT 8000 SCT020 BKN100 33/25 Q1008 NOSIG RMK A2977
 
RPLB - Olongapo/Subic, Philippines
Distance from station: WNW 78km
Updated: 08/07/2020 7:00am
NOT Current
Mostly cloudy
Mostly cloudy
 Wind from ENE
Wind: ENE 9 km/h
Temperature: 27°C
Heat Index: 30°C
Dew Point: 23°C
Humidity: 79%
Barometer: 1008 hPa
Clouds: Mostly cloudy
Visibility: 10 km
Cloud details: Few Clouds 610 m
Mostly cloudy 9144 m
2020/08/06 23:00 RPLB 062300Z 06005KT 9999 FEW020 BKN300 27/23 Q1008 NOSIG RMK A2977
RPMR - Romblon/Tablas I, Philippines
Distance from station: SSE 270km
Updated: 07/14/2020 1:00pm
NOT Current
Partly cloudy
Partly cloudy
 Wind from ESE
Wind: ESE 11 km/h
Temperature: 33°C
Heat Index: 35°C
Dew Point: 20°C
Humidity: 46%
Barometer: 1009 hPa
Clouds: Partly cloudy
Visibility: 10 km
Cloud details: Few Clouds 549 m
Partly cloudy 2438 m
2020/07/14 05:00 RPMR 140500Z 12006KT 9999 FEW018CB SCT080 33/20 Q1009 RMK A2981
 
RPLI - Laoag Intl(Ph-Ar, Philippines
Distance from station: N 394km
Updated: 08/07/2020 7:00am
NOT Current
Mostly cloudy
Mostly cloudy
 Wind from E
Wind: E 7 km/h
Temperature: 27°C
Heat Index: 31°C
Dew Point: 24°C
Humidity: 84%
Barometer: 1007 hPa
Clouds: Mostly cloudy
Visibility: 10 km
Cloud details: Few Clouds 518 m
Partly cloudy 549 m
Mostly cloudy 8839 m
2020/08/06 23:00 RPLI 062300Z 10004KT 9999 R01/P2000N FEW017CB SCT018 BKN290 27/24 Q1007 NOSIG RMK A2974 CB SW ? NW
RPVM - Mactan-Cebu, Philippines
Distance from station: SE 582km
Updated: 08/07/2020 7:00am
NOT Current
Overcast
Overcast
 Wind from SW
Wind: SW 6 km/h
Temperature: 26°C
Dew Point: 25°C
Humidity: 94%
Barometer: 1009 hPa
Clouds: Overcast
Visibility: 10 km
Cloud details: Few Clouds 610 m
Overcast 3048 m
2020/08/06 23:00 RPVM 062300Z 23003KT 9999 FEW020 OVC100 26/25 Q1009 A2980
 
RPVP - Puerto Princesa, Philippines
Distance from station: SSW 598km
Updated: 07/14/2020 1:00pm
NOT Current
Mostly cloudy
Mostly cloudy
 Wind from S
Wind: S 11 km/h
Temperature: 32°C
Heat Index: 38°C
Dew Point: 24°C
Humidity: 63%
Barometer: 1009 hPa
Clouds: Mostly cloudy
Visibility: 10 km
Cloud details: Few Clouds 579 m
Mostly cloudy 7315 m
2020/07/14 05:00 RPVP 140500Z 18006KT 9999 FEW019TCU BKN240 32/24 Q1009 RMK A2980
RPVD - Dumaguete/Negros, Philippines
Distance from station: SSE 643km
Updated: 07/14/2020 1:00pm
NOT Current
Mostly cloudy
Mostly cloudy
 Wind from ENE
Wind: ENE 11 km/h
Temperature: 31°C
Heat Index: 38°C
Dew Point: 25°C
Humidity: 70%
Barometer: 1008 hPa
Clouds: Mostly cloudy
Visibility: 10 km
Cloud details: Few Clouds 427 m
Few Clouds 457 m
Mostly cloudy 6706 m
2020/07/14 05:00 RPVD 140500Z 07006KT 9999 FEW014CB FEW015 BKN220 31/25 Q1008 RMK A2977
 
RPMZ - Zamboanga (civ/A, Philippines
Distance from station: S 868km
Updated: 08/07/2020 7:00am
NOT Current
Light rain, Showers, Overcast
Light rain, Showers, Overcast
 Wind from varies
Wind: varies 4 km/h
Temperature: 26°C
Dew Point: 24°C
Humidity: 89%
Barometer: 1009 hPa
Summary: Light rain, Showers
Clouds: Overcast
Visibility: 9 km
Cloud details: Few Clouds 518 m
Overcast 2743 m
2020/08/06 23:00 RPMZ 062300Z VRB02KT 9000 -SHRA FEW017 OVC090 26/24 Q1009 RMK A2980
RPMD - Davao/Francisco, Philippines
Distance from station: SSE 980km
Updated: 08/07/2020 7:00am
NOT Current
Mostly cloudy
Mostly cloudy
 Wind from N
Wind: N 6 km/h
Temperature: 26°C
Dew Point: 25°C
Humidity: 94%
Barometer: 1009 hPa
Clouds: Mostly cloudy
Visibility: 10 km
Cloud details: Few Clouds 488 m
Partly cloudy 2743 m
Mostly cloudy 7925 m
2020/08/06 23:00 RPMD 062300Z 36003KT 320V030 9999 FEW016 SCT090 BKN260 26/25 Q1009 RMK A2980